SCJO

Cañal Bajo Carlos - Hott Siebert Airport

Osorno, Chile
METAR SCJO 162100Z 02008KT 9999 FEW020 OVC025 10/08 Q1018
Observed Flight Rules
Aug-16 @ 21:00 UTC (10 hours ago) Marginal Visual Flight Rules
Wind Visibility Clouds
20° at 8 knots 10,000+ meters
  • Few at 2,000' AGL
  • Overcast at 2,500' AGL
Temperatures Readings
Current 10°C / 50°F
Dewpoint 8°C / 46°F
Humidity 88%
Altimeter 30.06" Hg
Pressure 1018 hPa
Elevation 65
METAR SCJO 162100Z 02008KT 9999 FEW020 OVC025 10/08 Q1018
Observed Flight Rules
Aug-16 @ 21:00 UTC
(10 hours ago)
MVFR
Wind Visibility
20° at 8 knots 10,000+ meters
Clouds
  • Few at 2,000' AGL
  • Overcast at 2,500' AGL
Temperature Dewpoint
10°C / 50°F 8°C / 46°F
Humidity Altimeter Pressure
88% 30.06" Hg 1018 hPa